createdAt,value
2022-10-14T00:00:22.966Z,0
2022-10-14T00:01:23.630Z,0
2022-10-14T00:02:24.191Z,0
2022-10-14T00:03:24.787Z,0
2022-10-14T00:04:25.383Z,0
2022-10-14T00:05:25.979Z,0
2022-10-14T00:06:26.579Z,0
2022-10-14T00:07:27.172Z,0
2022-10-14T00:08:27.771Z,0
2022-10-14T00:09:28.367Z,0
2022-10-14T00:10:28.963Z,0
2022-10-14T00:11:29.560Z,0
2022-10-14T00:12:30.162Z,0
2022-10-14T00:13:30.756Z,0
2022-10-14T00:14:31.352Z,0
2022-10-14T00:15:31.949Z,0
2022-10-14T00:16:32.549Z,0
2022-10-14T00:17:33.146Z,0
2022-10-14T00:18:33.742Z,0
2022-10-14T00:19:34.343Z,0
2022-10-14T00:20:34.937Z,0
2022-10-14T00:21:35.537Z,0
2022-10-14T00:22:36.134Z,0
2022-10-14T00:23:36.739Z,0
2022-10-14T00:24:37.350Z,0
2022-10-14T00:25:37.946Z,0
2022-10-14T00:26:38.544Z,0
2022-10-14T00:27:39.144Z,0
2022-10-14T00:28:39.798Z,0
2022-10-14T00:29:40.383Z,0
2022-10-14T00:30:40.978Z,0
2022-10-14T00:31:41.577Z,0
2022-10-14T00:32:42.174Z,0
2022-10-14T00:33:42.773Z,0
2022-10-14T00:34:43.369Z,0
2022-10-14T00:35:43.967Z,0
2022-10-14T00:36:44.585Z,0
2022-10-14T00:37:45.165Z,0
2022-10-14T00:38:45.758Z,0
2022-10-14T00:39:46.356Z,0
2022-10-14T00:40:46.953Z,0
2022-10-14T00:41:47.549Z,0
2022-10-14T00:42:48.149Z,0
2022-10-14T00:43:48.762Z,0
2022-10-14T00:44:49.364Z,0
2022-10-14T00:45:49.954Z,0
2022-10-14T00:46:50.548Z,0
2022-10-14T00:47:51.145Z,0
2022-10-14T00:48:51.746Z,0
2022-10-14T00:49:52.341Z,0
2022-10-14T00:50:52.936Z,0
2022-10-14T00:51:53.534Z,0
2022-10-14T00:52:54.129Z,0
2022-10-14T00:53:54.726Z,0
2022-10-14T00:54:55.321Z,0
2022-10-14T00:55:55.919Z,0
2022-10-14T00:56:56.517Z,0
2022-10-14T00:57:57.115Z,0
2022-10-14T00:58:57.712Z,0
2022-10-14T00:59:58.309Z,0
2022-10-14T01:00:59.007Z,0
2022-10-14T01:01:59.601Z,0
2022-10-14T01:03:00.218Z,0
2022-10-14T01:04:00.818Z,0
2022-10-14T01:05:01.413Z,0
2022-10-14T01:06:02.012Z,0
2022-10-14T01:07:02.607Z,0
2022-10-14T01:08:03.205Z,0
2022-10-14T01:09:03.799Z,0
2022-10-14T01:10:04.400Z,0
2022-10-14T01:11:04.993Z,0
2022-10-14T01:12:27.630Z,0
2022-10-14T01:13:07.181Z,0
2022-10-14T01:14:07.778Z,0
2022-10-14T01:15:08.371Z,0
2022-10-14T01:16:08.969Z,0
2022-10-14T01:17:09.564Z,0
2022-10-14T01:18:10.161Z,0
2022-10-14T01:19:10.757Z,0
2022-10-14T01:20:11.354Z,0
2022-10-14T01:21:11.950Z,0
2022-10-14T01:22:12.547Z,0
2022-10-14T01:23:13.158Z,0
2022-10-14T01:24:13.744Z,0
2022-10-14T01:25:14.339Z,0
2022-10-14T01:26:14.937Z,0
2022-10-14T01:27:15.531Z,0
2022-10-14T01:28:16.146Z,0
2022-10-14T01:29:16.724Z,0
2022-10-14T01:30:17.320Z,0
2022-10-14T01:31:17.918Z,0
2022-10-14T01:32:18.753Z,0
2022-10-14T01:33:19.510Z,0
2022-10-14T01:34:20.110Z,0
2022-10-14T01:35:20.705Z,0
2022-10-14T01:36:21.327Z,0
2022-10-14T01:37:21.920Z,0
2022-10-14T01:38:22.518Z,0
2022-10-14T01:39:23.116Z,0
2022-10-14T01:40:23.713Z,0
2022-10-14T01:41:24.311Z,0
2022-10-14T01:42:24.959Z,0
2022-10-14T01:43:25.508Z,0
2022-10-14T01:44:26.124Z,0
2022-10-14T01:45:26.722Z,0
2022-10-14T01:46:27.321Z,0
2022-10-14T01:47:27.937Z,0
2022-10-14T01:48:28.584Z,0
2022-10-14T01:49:29.182Z,0
2022-10-14T01:50:29.779Z,0
2022-10-14T01:51:30.375Z,0
2022-10-14T01:52:30.971Z,0
2022-10-14T01:53:31.569Z,0
2022-10-14T01:54:32.165Z,0
2022-10-14T01:55:32.762Z,0
2022-10-14T01:56:36.955Z,0
2022-10-14T01:57:34.951Z,0
2022-10-14T01:58:35.548Z,0
2022-10-14T01:59:36.144Z,0
2022-10-14T02:00:36.741Z,0
2022-10-14T02:01:37.362Z,0
2022-10-14T02:02:37.935Z,0
2022-10-14T02:03:38.528Z,0
2022-10-14T02:04:39.145Z,0
2022-10-14T02:05:39.742Z,0
2022-10-14T02:06:40.339Z,0
2022-10-14T02:07:40.933Z,0
2022-10-14T02:08:41.532Z,0
2022-10-14T02:09:42.128Z,0
2022-10-14T02:10:42.725Z,0
2022-10-14T02:11:43.319Z,0
2022-10-14T02:12:43.915Z,0
2022-10-14T02:13:44.510Z,0
2022-10-14T02:14:45.107Z,0
2022-10-14T02:15:45.705Z,0
2022-10-14T02:16:46.299Z,0
2022-10-14T02:17:46.898Z,0
2022-10-14T02:18:47.494Z,0
2022-10-14T02:19:48.091Z,0
2022-10-14T02:20:48.688Z,0
2022-10-14T02:21:49.283Z,0
2022-10-14T02:22:49.887Z,0
2022-10-14T02:23:50.477Z,0
2022-10-14T02:24:51.077Z,0
2022-10-14T02:25:51.671Z,0
2022-10-14T02:26:52.269Z,0
2022-10-14T02:27:52.866Z,0
2022-10-14T02:28:53.521Z,0
2022-10-14T02:29:54.083Z,0
2022-10-14T02:30:54.681Z,0
2022-10-14T02:31:55.277Z,0
2022-10-14T02:32:55.874Z,0
2022-10-14T02:33:56.468Z,0
2022-10-14T02:34:57.064Z,0
2022-10-14T02:35:57.658Z,0
2022-10-14T02:36:58.258Z,0
2022-10-14T02:37:58.873Z,0
2022-10-14T02:38:59.470Z,0
2022-10-14T02:40:00.072Z,0
2022-10-14T02:41:00.663Z,0
2022-10-14T02:42:01.259Z,0
2022-10-14T02:43:01.858Z,0
2022-10-14T02:44:02.453Z,0
2022-10-14T02:45:03.052Z,0
2022-10-14T02:46:03.651Z,0
2022-10-14T02:47:04.249Z,0
2022-10-14T02:48:04.845Z,0
2022-10-14T02:49:05.443Z,0
2022-10-14T02:50:06.060Z,0
2022-10-14T02:51:06.654Z,0
2022-10-14T02:52:07.247Z,0
2022-10-14T02:53:07.844Z,0
2022-10-14T02:54:08.438Z,0
2022-10-14T02:55:09.035Z,0
2022-10-14T02:56:09.631Z,0
2022-10-14T02:57:10.229Z,0
2022-10-14T02:58:10.823Z,0
2022-10-14T02:59:11.439Z,0
2022-10-14T03:00:12.113Z,0
2022-10-14T03:01:12.667Z,0
2022-10-14T03:02:13.376Z,0
2022-10-14T03:03:13.945Z,0
2022-10-14T03:04:14.539Z,0
2022-10-14T03:05:15.142Z,0
2022-10-14T03:06:15.755Z,0
2022-10-14T03:07:16.352Z,0
2022-10-14T03:08:16.951Z,0
2022-10-14T03:09:17.546Z,0
2022-10-14T03:10:18.144Z,0
2022-10-14T03:11:18.744Z,0
2022-10-14T03:12:19.614Z,0
2022-10-14T03:13:20.352Z,0
2022-10-14T03:14:20.948Z,0
2022-10-14T03:15:21.562Z,0
2022-10-14T03:16:22.163Z,0
2022-10-14T03:17:22.760Z,0
2022-10-14T03:18:23.376Z,0
2022-10-14T03:19:23.976Z,0
2022-10-14T03:20:24.570Z,0
2022-10-14T03:21:25.168Z,0
2022-10-14T03:22:25.767Z,0
2022-10-14T03:23:26.383Z,0
2022-10-14T03:24:27.000Z,0
2022-10-14T03:25:27.599Z,0
2022-10-14T03:26:28.196Z,0
2022-10-14T03:27:28.794Z,0
2022-10-14T03:28:29.467Z,0
2022-10-14T03:29:30.039Z,0
2022-10-14T03:30:30.635Z,0
2022-10-14T03:31:31.233Z,0
2022-10-14T03:32:31.829Z,0
2022-10-14T03:33:33.894Z,0
2022-10-14T03:34:34.022Z,0
2022-10-14T03:35:34.639Z,0
2022-10-14T03:36:35.230Z,0
2022-10-14T03:37:35.826Z,0
2022-10-14T03:38:36.422Z,0
2022-10-14T03:39:37.023Z,0
2022-10-14T03:40:37.616Z,0
2022-10-14T03:41:38.211Z,0
2022-10-14T03:42:38.809Z,0
2022-10-14T03:43:39.406Z,0
2022-10-14T03:44:40.001Z,0
2022-10-14T03:45:40.597Z,0
2022-10-14T03:46:41.196Z,0
2022-10-14T03:47:41.792Z,0
2022-10-14T03:48:42.390Z,0
2022-10-14T03:49:42.992Z,0
2022-10-14T03:50:43.585Z,0
2022-10-14T03:51:44.188Z,0
2022-10-14T03:52:46.841Z,0
2022-10-14T03:53:46.376Z,0
2022-10-14T03:54:46.973Z,0
2022-10-14T03:55:47.572Z,0
2022-10-14T03:56:48.168Z,0
2022-10-14T03:57:48.764Z,0
2022-10-14T03:58:49.360Z,0
2022-10-14T03:59:49.957Z,0
2022-10-14T04:00:50.550Z,0
2022-10-14T04:01:51.177Z,0
2022-10-14T04:02:51.761Z,0
2022-10-14T04:03:52.359Z,0
2022-10-14T04:04:55.956Z,0
2022-10-14T04:05:54.545Z,0
2022-10-14T04:06:55.140Z,0
2022-10-14T04:07:55.735Z,0
2022-10-14T04:08:56.329Z,0
2022-10-14T04:09:56.930Z,0
2022-10-14T04:10:57.522Z,0
2022-10-14T04:11:58.120Z,0
2022-10-14T04:12:58.716Z,0
2022-10-14T04:13:59.343Z,0
2022-10-14T04:14:59.929Z,0
2022-10-14T04:16:00.527Z,0
2022-10-14T04:17:01.124Z,0
2022-10-14T04:18:01.726Z,0
2022-10-14T04:19:02.319Z,0
2022-10-14T04:20:02.917Z,0
2022-10-14T04:21:03.515Z,0
2022-10-14T04:22:04.114Z,0
2022-10-14T04:23:04.716Z,0
2022-10-14T04:24:08.405Z,0
2022-10-14T04:25:06.897Z,0
2022-10-14T04:26:07.515Z,0
2022-10-14T04:27:08.112Z,0
2022-10-14T04:28:08.711Z,0
2022-10-14T04:29:09.330Z,0
2022-10-14T04:30:09.926Z,0
2022-10-14T04:31:10.538Z,0
2022-10-14T04:32:11.145Z,0
2022-10-14T04:33:11.742Z,0
2022-10-14T04:34:12.343Z,0
2022-10-14T04:35:12.939Z,0
2022-10-14T04:36:13.536Z,0
2022-10-14T04:37:14.132Z,0
2022-10-14T04:38:14.730Z,0
2022-10-14T04:39:15.329Z,0
2022-10-14T04:40:15.928Z,0
2022-10-14T04:41:16.526Z,0
2022-10-14T04:42:17.122Z,0
2022-10-14T04:43:17.720Z,0
2022-10-14T04:44:18.318Z,0
2022-10-14T04:45:18.916Z,0
2022-10-14T04:46:19.512Z,0
2022-10-14T04:47:20.109Z,0
2022-10-14T04:48:20.707Z,0
2022-10-14T04:49:21.303Z,0
2022-10-14T04:50:21.900Z,0
2022-10-14T04:51:22.499Z,0
2022-10-14T04:52:23.372Z,0
2022-10-14T04:53:24.273Z,0
2022-10-14T04:54:24.885Z,0
2022-10-14T04:55:25.485Z,0
2022-10-14T04:56:26.083Z,0
2022-10-14T04:57:26.704Z,0
2022-10-14T04:58:27.305Z,0
2022-10-14T04:59:27.926Z,0
2022-10-14T05:00:28.500Z,0
2022-10-14T05:01:33.639Z,0
2022-10-14T05:02:30.690Z,0
2022-10-14T05:03:31.287Z,0
2022-10-14T05:04:31.889Z,0
2022-10-14T05:05:32.485Z,0
2022-10-14T05:06:33.105Z,0
2022-10-14T05:07:33.743Z,0
2022-10-14T05:08:34.338Z,0
2022-10-14T05:09:34.941Z,0
2022-10-14T05:10:35.534Z,0
2022-10-14T05:11:36.134Z,0
2022-10-14T05:12:36.730Z,0
2022-10-14T05:13:37.356Z,0
2022-10-14T05:14:37.946Z,0
2022-10-14T05:15:38.545Z,0
2022-10-14T05:16:39.143Z,4
2022-10-14T05:17:39.740Z,4
2022-10-14T05:18:40.360Z,4
2022-10-14T05:19:40.956Z,4
2022-10-14T05:20:41.553Z,4
2022-10-14T05:21:42.153Z,8
2022-10-14T05:22:42.751Z,8
2022-10-14T05:23:43.349Z,8
2022-10-14T05:24:43.968Z,12
2022-10-14T05:25:44.566Z,16
2022-10-14T05:26:45.184Z,12
2022-10-14T05:27:45.784Z,20
2022-10-14T05:28:46.422Z,28
2022-10-14T05:29:46.979Z,32
2022-10-14T05:30:47.597Z,32
2022-10-14T05:31:48.194Z,36
2022-10-14T05:32:48.793Z,48
2022-10-14T05:33:49.391Z,52
2022-10-14T05:34:49.991Z,68
2022-10-14T05:35:59.365Z,80
2022-10-14T05:36:52.177Z,88
2022-10-14T05:37:52.778Z,100
2022-10-14T05:38:53.377Z,108
2022-10-14T05:39:53.978Z,128
2022-10-14T05:40:54.574Z,152
2022-10-14T05:41:55.177Z,160
2022-10-14T05:42:55.774Z,152
2022-10-14T05:43:56.374Z,148
2022-10-14T05:44:56.970Z,152
2022-10-14T05:45:57.569Z,160
2022-10-14T05:46:58.166Z,168
2022-10-14T05:47:58.765Z,164
2022-10-14T05:48:59.363Z,168
2022-10-14T05:49:59.961Z,188
2022-10-14T05:51:00.558Z,204
2022-10-14T05:52:01.159Z,232
2022-10-14T05:53:01.782Z,264
2022-10-14T05:54:02.380Z,276
2022-10-14T05:55:02.996Z,288
2022-10-14T05:56:03.597Z,320
2022-10-14T05:57:04.208Z,376
2022-10-14T05:58:04.798Z,456
2022-10-14T05:59:05.399Z,500
2022-10-14T06:00:06.004Z,520
2022-10-14T06:01:06.623Z,556
2022-10-14T06:02:07.221Z,564
2022-10-14T06:03:07.847Z,516
2022-10-14T06:04:08.452Z,496
2022-10-14T06:05:09.051Z,560
2022-10-14T06:06:09.653Z,600
2022-10-14T06:07:10.258Z,604
2022-10-14T06:08:10.871Z,588
2022-10-14T06:09:11.749Z,612
2022-10-14T06:10:12.305Z,672
2022-10-14T06:11:12.905Z,744
2022-10-14T06:12:13.506Z,804
2022-10-14T06:13:14.112Z,728
2022-10-14T06:14:14.706Z,652
2022-10-14T06:15:15.307Z,644
2022-10-14T06:16:15.907Z,576
2022-10-14T06:17:17.699Z,532
2022-10-14T06:18:18.103Z,552
2022-10-14T06:19:18.703Z,560
2022-10-14T06:20:19.309Z,588
2022-10-14T06:21:19.907Z,652
2022-10-14T06:22:20.751Z,688
2022-10-14T06:23:21.491Z,676
2022-10-14T06:24:22.090Z,728
2022-10-14T06:25:22.691Z,796
2022-10-14T06:26:23.292Z,848
2022-10-14T06:27:23.892Z,948
2022-10-14T06:28:24.519Z,1048
2022-10-14T06:29:25.108Z,1156
2022-10-14T06:30:25.715Z,1160
2022-10-14T06:31:31.261Z,1208
2022-10-14T06:32:27.910Z,1320
2022-10-14T06:33:28.531Z,1296
2022-10-14T06:34:29.134Z,1204
2022-10-14T06:35:29.739Z,1304
2022-10-14T06:36:30.338Z,1544
2022-10-14T06:37:30.939Z,1744
2022-10-14T06:38:31.551Z,1964
2022-10-14T06:39:32.144Z,2144
2022-10-14T06:40:32.750Z,2240
2022-10-14T06:41:33.351Z,2288
2022-10-14T06:42:33.952Z,2288
2022-10-14T06:43:34.556Z,2568
2022-10-14T06:44:35.159Z,2760
2022-10-14T06:45:35.760Z,2528
2022-10-14T06:46:36.370Z,2656
2022-10-14T06:47:36.967Z,3320
2022-10-14T06:48:37.569Z,4076
2022-10-14T06:49:38.171Z,4016
2022-10-14T06:50:38.777Z,4028
2022-10-14T06:51:39.378Z,3740
2022-10-14T06:52:39.982Z,3588
2022-10-14T06:53:40.585Z,3204
2022-10-14T06:54:45.930Z,2520
2022-10-14T06:55:42.783Z,2340
2022-10-14T06:56:43.387Z,2540
2022-10-14T06:57:43.991Z,2940
2022-10-14T06:58:44.594Z,2904
2022-10-14T06:59:45.195Z,2840
2022-10-14T07:00:48.314Z,2804
2022-10-14T07:01:46.469Z,2924
2022-10-14T07:02:47.048Z,3352
2022-10-14T07:03:49.045Z,5488
2022-10-14T07:04:49.245Z,6376
2022-10-14T07:05:49.844Z,5536
2022-10-14T07:06:50.449Z,4584
2022-10-14T07:07:51.113Z,4268
2022-10-14T07:08:51.715Z,5260
2022-10-14T07:09:52.317Z,6536
2022-10-14T07:10:52.921Z,7108
2022-10-14T07:11:53.523Z,6176
2022-10-14T07:12:54.131Z,5664
2022-10-14T07:13:54.728Z,6152
2022-10-14T07:14:55.331Z,6164
2022-10-14T07:15:55.934Z,5816
2022-10-14T07:16:56.557Z,5472
2022-10-14T07:17:57.158Z,5928
2022-10-14T07:18:57.761Z,7544
2022-10-14T07:19:58.381Z,7512
2022-10-14T07:20:58.987Z,7048
2022-10-14T07:21:59.588Z,7848
2022-10-14T07:23:00.192Z,8844
2022-10-14T07:24:00.794Z,10532
2022-10-14T07:25:01.400Z,10536
2022-10-14T07:26:02.000Z,8016
2022-10-14T07:28:04.080Z,7336
2022-10-14T07:29:04.740Z,8336
2022-10-14T07:30:05.337Z,8308
2022-10-14T07:31:05.923Z,9016
2022-10-14T07:32:06.527Z,9180
2022-10-14T07:33:07.127Z,9592
2022-10-14T07:34:07.730Z,8700
2022-10-14T07:35:08.331Z,8724
2022-10-14T07:36:08.983Z,8992
2022-10-14T07:37:09.557Z,8268
2022-10-14T07:38:10.159Z,8812
2022-10-14T07:39:10.760Z,9044
2022-10-14T07:40:11.362Z,8292
2022-10-14T07:41:11.965Z,7708
2022-10-14T07:42:12.605Z,7056
2022-10-14T07:43:13.189Z,5812
2022-10-14T07:44:13.790Z,6560
2022-10-14T07:45:14.410Z,6056
2022-10-14T07:46:15.013Z,7044
2022-10-14T07:47:15.613Z,9984
2022-10-14T07:48:19.694Z,12880
2022-10-14T07:49:17.814Z,13364
2022-10-14T07:50:18.415Z,9676
2022-10-14T07:51:19.040Z,10320
2022-10-14T07:52:19.662Z,8224
2022-10-14T07:53:20.281Z,7060
2022-10-14T07:54:20.902Z,7608
2022-10-14T07:55:21.507Z,11368
2022-10-14T07:56:22.112Z,15420
2022-10-14T07:57:23.083Z,15028
2022-10-14T07:58:23.859Z,16760
2022-10-14T07:59:24.462Z,17116
2022-10-14T08:00:25.064Z,21056
2022-10-14T08:01:25.690Z,21888
2022-10-14T08:02:26.273Z,20192
2022-10-14T08:03:26.876Z,17408
2022-10-14T08:04:27.478Z,16524
2022-10-14T08:05:43.309Z,16036
2022-10-14T08:06:29.678Z,16952
2022-10-14T08:07:30.284Z,16260
2022-10-14T08:08:30.885Z,12908
2022-10-14T08:09:31.490Z,14184
2022-10-14T08:10:32.092Z,14804
2022-10-14T08:11:32.715Z,14000
2022-10-14T08:12:33.338Z,13340
2022-10-14T08:13:33.943Z,13780
2022-10-14T08:14:34.827Z,13216
2022-10-14T08:15:35.451Z,12360
2022-10-14T08:16:36.062Z,12688
2022-10-14T08:17:36.674Z,12196
2022-10-14T08:18:37.275Z,13936
2022-10-14T08:19:37.899Z,13020
2022-10-14T08:20:38.505Z,16384
2022-10-14T08:21:39.127Z,19552
2022-10-14T08:22:39.728Z,19392
2022-10-14T08:23:40.332Z,19296
2022-10-14T08:24:40.937Z,19008
2022-10-14T08:25:41.539Z,18304
2022-10-14T08:26:42.163Z,18912
2022-10-14T08:27:42.785Z,20320
2022-10-14T08:28:43.436Z,22016
2022-10-14T08:29:44.005Z,24192
2022-10-14T08:30:44.609Z,22656
2022-10-14T08:31:45.212Z,23168
2022-10-14T08:32:45.834Z,25856
2022-10-14T08:33:46.439Z,25472
2022-10-14T08:34:47.043Z,25152
2022-10-14T08:35:51.624Z,23200
2022-10-14T08:36:49.241Z,20224
2022-10-14T08:37:49.841Z,18144
2022-10-14T08:38:50.442Z,17888
2022-10-14T08:39:51.044Z,19424
2022-10-14T08:40:54.919Z,18912
2022-10-14T08:41:53.261Z,16192
2022-10-14T08:42:53.863Z,15208
2022-10-14T08:43:54.470Z,15788
2022-10-14T08:44:55.065Z,16348
2022-10-14T08:45:55.668Z,17888
2022-10-14T08:46:56.269Z,17300
2022-10-14T08:47:56.875Z,21792
2022-10-14T08:48:57.473Z,28864
2022-10-14T08:49:58.077Z,28000
2022-10-14T08:50:58.677Z,24480
2022-10-14T08:51:59.277Z,24000
2022-10-14T08:52:59.879Z,23136
2022-10-14T08:54:00.479Z,22624
2022-10-14T08:55:01.079Z,25760
2022-10-14T08:56:01.679Z,25952
2022-10-14T08:57:02.347Z,25504
2022-10-14T08:58:05.017Z,27520
2022-10-14T08:59:04.516Z,26080
2022-10-14T09:00:05.121Z,23232
2022-10-14T09:01:09.809Z,24512
2022-10-14T09:02:07.311Z,31552
2022-10-14T09:03:08.003Z,29152
2022-10-14T09:04:08.645Z,39200
2022-10-14T09:05:09.241Z,23840
2022-10-14T09:06:09.839Z,36224
2022-10-14T09:07:10.440Z,25504
2022-10-14T09:08:11.042Z,20960
2022-10-14T09:09:11.642Z,19232
2022-10-14T09:10:12.263Z,19712
2022-10-14T09:11:12.864Z,22912
2022-10-14T09:12:13.463Z,22176
2022-10-14T09:13:14.063Z,23552
2022-10-14T09:14:14.664Z,23936
2022-10-14T09:15:15.263Z,26816
2022-10-14T09:16:15.863Z,22752
2022-10-14T09:17:16.466Z,21984
2022-10-14T09:18:17.067Z,23840
2022-10-14T09:19:17.691Z,23040
2022-10-14T09:20:18.284Z,33664
2022-10-14T09:21:27.833Z,20192
2022-10-14T09:22:20.809Z,30464
2022-10-14T09:23:21.501Z,35936
2022-10-14T09:24:22.127Z,40000
2022-10-14T09:25:22.703Z,65280
2022-10-14T09:26:23.303Z,59840
2022-10-14T09:27:24.380Z,64448
2022-10-14T09:28:25.261Z,46368
2022-10-14T09:29:25.830Z,68448
2022-10-14T09:30:26.430Z,66176
2022-10-14T09:31:27.122Z,64608
2022-10-14T09:32:27.651Z,69728
2022-10-14T09:33:28.250Z,32288
2022-10-14T09:34:28.854Z,30112
2022-10-14T09:35:29.453Z,68576
2022-10-14T09:36:30.055Z,62848
2022-10-14T09:37:30.653Z,48512
2022-10-14T09:38:31.254Z,56640
2022-10-14T09:39:31.874Z,66560
2022-10-14T09:40:32.476Z,27072
2022-10-14T09:41:33.078Z,32736
2022-10-14T09:42:33.677Z,25056
2022-10-14T09:43:34.313Z,25888
2022-10-14T09:44:34.874Z,26848
2022-10-14T09:45:35.473Z,34752
2022-10-14T09:46:36.073Z,33088
2022-10-14T09:47:36.674Z,36800
2022-10-14T09:48:37.276Z,34368
2022-10-14T09:49:37.896Z,57600
2022-10-14T09:50:38.497Z,57856
2022-10-14T09:51:39.100Z,77568
2022-10-14T09:52:39.700Z,64608
2022-10-14T09:53:40.301Z,46976
2022-10-14T09:54:40.944Z,54816
2022-10-14T09:55:41.514Z,68896
2022-10-14T09:56:42.294Z,76256
2022-10-14T09:57:42.727Z,66368
2022-10-14T09:58:43.327Z,52928
2022-10-14T09:59:43.930Z,40128
2022-10-14T10:00:44.528Z,66560
2022-10-14T10:01:45.128Z,35776
2022-10-14T10:02:45.727Z,27008
2022-10-14T10:03:46.450Z,19264
2022-10-14T10:04:46.954Z,15292
2022-10-14T10:05:47.566Z,13628
2022-10-14T10:06:48.165Z,14336
2022-10-14T10:07:48.767Z,16800
2022-10-14T10:08:49.363Z,15536
2022-10-14T10:09:49.967Z,15212
2022-10-14T10:10:50.566Z,15000
2022-10-14T10:11:51.165Z,21344
2022-10-14T10:12:51.764Z,25568
2022-10-14T10:13:52.365Z,31808
2022-10-14T10:14:52.965Z,30464
2022-10-14T10:15:53.567Z,30304
2022-10-14T10:16:54.188Z,24384
2022-10-14T10:17:54.788Z,21536
2022-10-14T10:18:55.386Z,23712
2022-10-14T10:19:55.987Z,23392
2022-10-14T10:20:56.628Z,40480
2022-10-14T10:21:57.230Z,61344
2022-10-14T10:22:57.831Z,59776
2022-10-14T10:23:58.454Z,58752
2022-10-14T10:24:59.055Z,64352
2022-10-14T10:25:59.655Z,81120
2022-10-14T10:27:00.254Z,80000
2022-10-14T10:28:00.858Z,76224
2022-10-14T10:29:01.516Z,60704
2022-10-14T10:30:02.095Z,30048
2022-10-14T10:31:02.694Z,33088
2022-10-14T10:32:03.299Z,31232
2022-10-14T10:33:03.901Z,37504
2022-10-14T10:34:04.503Z,33632
2022-10-14T10:35:05.106Z,32384
2022-10-14T10:36:05.737Z,37088
2022-10-14T10:37:06.322Z,45792
2022-10-14T10:38:06.998Z,46848
2022-10-14T10:39:07.597Z,44320
2022-10-14T10:40:08.201Z,55072
2022-10-14T10:41:08.801Z,36000
2022-10-14T10:42:09.401Z,34272
2022-10-14T10:43:10.001Z,32192
2022-10-14T10:44:10.602Z,27968
2022-10-14T10:45:11.205Z,29344
2022-10-14T10:46:11.808Z,42240
2022-10-14T10:47:12.409Z,29696
2022-10-14T10:48:13.033Z,29120
2022-10-14T10:49:13.629Z,28416
2022-10-14T10:50:14.235Z,33920
2022-10-14T10:51:14.829Z,24512
2022-10-14T10:52:17.468Z,21248
2022-10-14T10:53:17.029Z,19968
2022-10-14T10:54:17.651Z,17028
2022-10-14T10:55:18.251Z,16056
2022-10-14T10:56:18.851Z,15220
2022-10-14T10:57:19.641Z,15000
2022-10-14T10:58:20.326Z,15728
2022-10-14T10:59:20.932Z,16660
2022-10-14T11:00:21.562Z,17028
2022-10-14T11:01:22.218Z,14308
2022-10-14T11:02:23.047Z,10296
2022-10-14T11:03:23.805Z,8032
2022-10-14T11:04:24.404Z,8664
2022-10-14T11:05:25.070Z,12136
2022-10-14T11:06:25.638Z,14480
2022-10-14T11:07:28.059Z,15624
2022-10-14T11:08:27.868Z,18816
2022-10-14T11:09:28.431Z,23424
2022-10-14T11:10:29.054Z,28000
2022-10-14T11:11:29.655Z,32192
2022-10-14T11:12:30.257Z,33312
2022-10-14T11:13:33.078Z,37728
2022-10-14T11:14:32.473Z,43616
2022-10-14T11:15:33.072Z,45792
2022-10-14T11:16:33.673Z,46560
2022-10-14T11:17:34.338Z,58592
2022-10-14T11:18:35.181Z,54272
2022-10-14T11:19:35.782Z,115968
2022-10-14T11:20:36.384Z,88512
2022-10-14T11:21:36.985Z,119744
2022-10-14T11:22:37.589Z,122752
2022-10-14T11:23:38.190Z,54912
2022-10-14T11:24:38.791Z,46976
2022-10-14T11:25:39.412Z,98656
2022-10-14T11:26:40.017Z,61696
2022-10-14T11:27:40.615Z,62592
2022-10-14T11:28:41.261Z,43296
2022-10-14T11:29:41.831Z,36160
2022-10-14T11:30:42.451Z,30912
2022-10-14T11:31:43.050Z,29536
2022-10-14T11:32:43.652Z,29408
2022-10-14T11:33:44.273Z,29216
2022-10-14T11:34:44.875Z,38976
2022-10-14T11:35:45.475Z,36128
2022-10-14T11:36:46.079Z,38688
2022-10-14T11:37:46.675Z,40544
2022-10-14T11:38:47.276Z,44192
2022-10-14T11:39:47.878Z,55360
2022-10-14T11:40:48.478Z,52128
2022-10-14T11:41:49.081Z,35136
2022-10-14T11:42:49.702Z,28800
2022-10-14T11:43:50.300Z,24320
2022-10-14T11:44:50.901Z,25472
2022-10-14T11:45:51.500Z,31136
2022-10-14T11:46:52.103Z,34176
2022-10-14T11:47:52.700Z,30336
2022-10-14T11:48:53.300Z,22624
2022-10-14T11:49:53.907Z,17900
2022-10-14T11:50:54.502Z,14248
2022-10-14T11:51:55.101Z,12924
2022-10-14T11:52:55.701Z,12472
2022-10-14T11:53:56.301Z,12444
2022-10-14T11:54:56.901Z,12820
2022-10-14T11:55:57.503Z,17616
2022-10-14T11:56:58.102Z,22816
2022-10-14T11:57:58.701Z,24384
2022-10-14T11:58:59.303Z,22432
2022-10-14T11:59:59.905Z,20640
2022-10-14T12:01:00.526Z,19968
2022-10-14T12:02:01.121Z,18464
2022-10-14T12:03:01.823Z,16328
2022-10-14T12:04:02.418Z,15448
2022-10-14T12:05:03.014Z,17008
2022-10-14T12:06:03.620Z,21280
2022-10-14T12:07:04.233Z,26048
2022-10-14T12:08:04.830Z,26784
2022-10-14T12:09:05.431Z,25920
2022-10-14T12:10:06.031Z,23680
2022-10-14T12:11:06.633Z,22176
2022-10-14T12:12:07.233Z,21216
2022-10-14T12:13:07.835Z,20352
2022-10-14T12:14:08.452Z,19296
2022-10-14T12:15:09.053Z,18176
2022-10-14T12:16:09.653Z,17348
2022-10-14T12:17:13.532Z,17448
2022-10-14T12:18:11.847Z,17412
2022-10-14T12:19:12.445Z,16992
2022-10-14T12:20:13.113Z,16320
2022-10-14T12:21:13.785Z,15044
2022-10-14T12:22:14.299Z,13900
2022-10-14T12:23:14.902Z,13064
2022-10-14T12:24:15.501Z,12500
2022-10-14T12:25:16.102Z,12092
2022-10-14T12:26:16.702Z,12492
2022-10-14T12:27:17.303Z,13408
2022-10-14T12:28:17.939Z,13964
2022-10-14T12:29:18.524Z,13396
2022-10-14T12:30:19.124Z,13104
2022-10-14T12:31:19.745Z,12300
2022-10-14T12:32:20.795Z,12816
2022-10-14T12:33:23.011Z,13252
2022-10-14T12:34:23.204Z,13032
2022-10-14T12:35:23.805Z,13600
2022-10-14T12:36:24.441Z,13836
2022-10-14T12:37:28.846Z,13048
2022-10-14T12:38:26.599Z,12608
2022-10-14T12:39:27.201Z,12368
2022-10-14T12:40:27.800Z,12428
2022-10-14T12:41:28.402Z,12864
2022-10-14T12:42:29.000Z,13820
2022-10-14T12:43:29.603Z,15560
2022-10-14T12:44:30.222Z,18208
2022-10-14T12:45:30.881Z,21280
2022-10-14T12:46:31.441Z,24384
2022-10-14T12:47:32.042Z,29344
2022-10-14T12:48:32.663Z,34304
2022-10-14T12:49:33.283Z,37408
2022-10-14T12:50:33.883Z,39200
2022-10-14T12:51:34.485Z,42848
2022-10-14T12:52:35.085Z,45536
2022-10-14T12:53:35.685Z,43424
2022-10-14T12:54:36.285Z,37568
2022-10-14T12:55:36.891Z,35392
2022-10-14T12:56:37.489Z,33344
2022-10-14T12:57:41.491Z,30912
2022-10-14T12:58:39.704Z,28736
2022-10-14T12:59:40.305Z,26560
2022-10-14T13:00:40.904Z,22944
2022-10-14T13:01:41.606Z,20512
2022-10-14T13:02:42.177Z,18016
2022-10-14T13:03:43.172Z,16024
2022-10-14T13:04:43.770Z,14076
2022-10-14T13:05:44.371Z,10872
2022-10-14T13:06:44.968Z,7968
2022-10-14T13:07:46.401Z,6712
2022-10-14T13:08:47.158Z,6032
2022-10-14T13:09:47.758Z,6056
2022-10-14T13:10:48.428Z,6624
2022-10-14T13:11:49.022Z,7828
2022-10-14T13:12:49.641Z,9184
2022-10-14T13:13:50.241Z,8800
2022-10-14T13:14:50.858Z,8788
2022-10-14T13:15:51.454Z,10296
2022-10-14T13:16:52.056Z,12392
2022-10-14T13:17:52.653Z,14260
2022-10-14T13:18:53.254Z,16124
2022-10-14T13:19:53.874Z,18368
2022-10-14T13:20:54.476Z,19392
2022-10-14T13:21:55.073Z,19072
2022-10-14T13:22:55.673Z,17644
2022-10-14T13:23:56.273Z,15896
2022-10-14T13:24:56.873Z,14140
2022-10-14T13:25:57.653Z,13720
2022-10-14T13:26:58.234Z,14532
2022-10-14T13:27:58.833Z,16068
2022-10-14T13:28:59.479Z,17256
2022-10-14T13:30:00.084Z,17652
2022-10-14T13:31:00.691Z,16436
2022-10-14T13:32:01.299Z,14044
2022-10-14T13:33:01.901Z,11892
2022-10-14T13:34:02.497Z,10772
2022-10-14T13:35:03.098Z,10328
2022-10-14T13:36:03.696Z,9904
2022-10-14T13:37:04.313Z,9200
2022-10-14T13:38:04.909Z,8712
2022-10-14T13:39:05.508Z,8612
2022-10-14T13:40:06.132Z,9184
2022-10-14T13:41:06.709Z,10200
2022-10-14T13:42:07.302Z,11108
2022-10-14T13:43:07.903Z,11152
2022-10-14T13:44:08.502Z,10420
2022-10-14T13:45:09.120Z,9660
2022-10-14T13:46:09.719Z,9284
2022-10-14T13:47:10.321Z,9260
2022-10-14T13:48:10.919Z,9236
2022-10-14T13:49:11.549Z,8916
2022-10-14T13:50:12.119Z,8496
2022-10-14T13:51:24.371Z,8356